sensor_id;sensor_type;location;lat;lon;timestamp;pressure;altitude;pressure_sealevel;temperature;humidity
37291;BME280;23175;-33.706;151.094;2024-01-07T00:00:39;100080.72;;;21.97;43.55
37291;BME280;23175;-33.706;151.094;2024-01-07T00:03:10;100084.33;;;21.02;42.90
37291;BME280;23175;-33.706;151.094;2024-01-07T00:05:41;100088.79;;;19.16;46.58
37291;BME280;23175;-33.706;151.094;2024-01-07T00:08:11;100091.92;;;18.82;47.43
37291;BME280;23175;-33.706;151.094;2024-01-07T00:10:41;100080.24;;;20.09;46.33
37291;BME280;23175;-33.706;151.094;2024-01-07T00:13:12;100083.26;;;19.89;47.12
37291;BME280;23175;-33.706;151.094;2024-01-07T00:15:42;100077.79;;;20.76;45.78
37291;BME280;23175;-33.706;151.094;2024-01-07T00:18:12;100069.04;;;22.54;42.66
37291;BME280;23175;-33.706;151.094;2024-01-07T00:20:42;100073.98;;;20.31;46.08
37291;BME280;23175;-33.706;151.094;2024-01-07T00:23:12;100076.44;;;19.45;47.67
37291;BME280;23175;-33.706;151.094;2024-01-07T00:25:42;100069.78;;;21.36;44.68
37291;BME280;23175;-33.706;151.094;2024-01-07T00:28:12;100070.07;;;21.07;45.35
37291;BME280;23175;-33.706;151.094;2024-01-07T00:30:43;100075.06;;;20.82;44.42
37291;BME280;23175;-33.706;151.094;2024-01-07T00:33:13;100071.35;;;22.22;43.26
37291;BME280;23175;-33.706;151.094;2024-01-07T00:35:48;100068.81;;;22.86;41.61
37291;BME280;23175;-33.706;151.094;2024-01-07T00:38:19;100061.68;;;21.11;44.27
37291;BME280;23175;-33.706;151.094;2024-01-07T00:40:49;100062.43;;;20.55;44.89
37291;BME280;23175;-33.706;151.094;2024-01-07T00:43:19;100053.07;;;21.00;44.66
37291;BME280;23175;-33.706;151.094;2024-01-07T00:45:49;100044.72;;;23.45;41.80
37291;BME280;23175;-33.706;151.094;2024-01-07T00:48:19;100035.78;;;22.74;42.66
37291;BME280;23175;-33.706;151.094;2024-01-07T00:50:50;100031.85;;;23.32;41.63
37291;BME280;23175;-33.706;151.094;2024-01-07T00:53:19;100031.77;;;23.02;41.33
37291;BME280;23175;-33.706;151.094;2024-01-07T00:55:49;100026.75;;;23.84;40.84
37291;BME280;23175;-33.706;151.094;2024-01-07T00:58:20;100025.90;;;21.02;43.15
37291;BME280;23175;-33.706;151.094;2024-01-07T01:00:50;100025.85;;;20.60;44.96
37291;BME280;23175;-33.706;151.094;2024-01-07T01:03:20;100023.76;;;21.65;43.61
37291;BME280;23175;-33.706;151.094;2024-01-07T01:05:50;100010.75;;;23.21;40.96
37291;BME280;23175;-33.706;151.094;2024-01-07T01:08:20;100004.55;;;22.91;40.75
37291;BME280;23175;-33.706;151.094;2024-01-07T01:10:50;100003.59;;;23.02;41.60
37291;BME280;23175;-33.706;151.094;2024-01-07T01:13:21;100004.27;;;22.88;41.84
37291;BME280;23175;-33.706;151.094;2024-01-07T01:15:51;100000.73;;;22.65;43.15
37291;BME280;23175;-33.706;151.094;2024-01-07T01:18:21;99997.15;;;20.36;45.43
37291;BME280;23175;-33.706;151.094;2024-01-07T01:20:52;99996.59;;;20.17;47.06
37291;BME280;23175;-33.706;151.094;2024-01-07T01:23:22;99994.15;;;21.69;45.53
37291;BME280;23175;-33.706;151.094;2024-01-07T01:25:52;99995.98;;;23.21;43.57
37291;BME280;23175;-33.706;151.094;2024-01-07T01:28:23;99999.61;;;22.13;44.31
37291;BME280;23175;-33.706;151.094;2024-01-07T01:30:53;99986.60;;;21.33;46.07
37291;BME280;23175;-33.706;151.094;2024-01-07T01:33:23;99987.25;;;22.53;44.60
37291;BME280;23175;-33.706;151.094;2024-01-07T01:35:54;99980.22;;;21.12;46.78
37291;BME280;23175;-33.706;151.094;2024-01-07T01:38:24;99982.03;;;22.33;44.54
37291;BME280;23175;-33.706;151.094;2024-01-07T01:40:55;99977.89;;;21.07;46.87
37291;BME280;23175;-33.706;151.094;2024-01-07T01:43:26;99969.48;;;22.69;44.39
37291;BME280;23175;-33.706;151.094;2024-01-07T01:45:57;99958.60;;;21.46;46.01
37291;BME280;23175;-33.706;151.094;2024-01-07T01:48:27;99953.46;;;22.81;43.13
37291;BME280;23175;-33.706;151.094;2024-01-07T01:50:58;99949.09;;;22.30;44.61
37291;BME280;23175;-33.706;151.094;2024-01-07T01:53:30;99947.19;;;20.58;46.70
37291;BME280;23175;-33.706;151.094;2024-01-07T01:56:02;99945.76;;;21.93;45.25
37291;BME280;23175;-33.706;151.094;2024-01-07T01:58:33;99945.83;;;20.88;46.85
37291;BME280;23175;-33.706;151.094;2024-01-07T02:01:05;99941.06;;;22.51;44.65
37291;BME280;23175;-33.706;151.094;2024-01-07T02:03:34;99925.51;;;22.45;44.67
37291;BME280;23175;-33.706;151.094;2024-01-07T02:06:05;99917.07;;;24.29;42.52
37291;BME280;23175;-33.706;151.094;2024-01-07T02:08:35;99915.60;;;22.08;45.48
37291;BME280;23175;-33.706;151.094;2024-01-07T02:11:17;99926.97;;;23.03;44.46
37291;BME280;23175;-33.706;151.094;2024-01-07T02:13:48;99922.57;;;23.98;43.66
37291;BME280;23175;-33.706;151.094;2024-01-07T02:16:19;99923.69;;;22.02;45.33
37291;BME280;23175;-33.706;151.094;2024-01-07T02:18:49;99912.88;;;23.13;43.38
37291;BME280;23175;-33.706;151.094;2024-01-07T02:21:19;99912.02;;;22.03;45.15
37291;BME280;23175;-33.706;151.094;2024-01-07T02:23:49;99915.88;;;20.80;46.92
37291;BME280;23175;-33.706;151.094;2024-01-07T02:26:18;99903.10;;;21.85;44.84
37291;BME280;23175;-33.706;151.094;2024-01-07T02:28:48;99905.11;;;21.44;45.77
37291;BME280;23175;-33.706;151.094;2024-01-07T02:31:19;99907.98;;;21.65;46.16
37291;BME280;23175;-33.706;151.094;2024-01-07T02:33:48;99905.42;;;21.28;46.45
37291;BME280;23175;-33.706;151.094;2024-01-07T02:36:19;99905.11;;;21.76;47.17
37291;BME280;23175;-33.706;151.094;2024-01-07T02:38:49;99906.91;;;22.23;46.01
37291;BME280;23175;-33.706;151.094;2024-01-07T02:41:19;99906.26;;;20.73;48.34
37291;BME280;23175;-33.706;151.094;2024-01-07T02:43:55;99904.41;;;20.21;50.33
37291;BME280;23175;-33.706;151.094;2024-01-07T02:46:26;99894.63;;;21.19;49.95
37291;BME280;23175;-33.706;151.094;2024-01-07T02:48:55;99900.56;;;21.92;46.95
37291;BME280;23175;-33.706;151.094;2024-01-07T02:51:25;99905.45;;;19.75;50.25
37291;BME280;23175;-33.706;151.094;2024-01-07T02:53:56;99899.20;;;20.48;49.61
37291;BME280;23175;-33.706;151.094;2024-01-07T02:56:26;99893.81;;;23.32;46.09
37291;BME280;23175;-33.706;151.094;2024-01-07T02:58:57;99886.39;;;20.37;49.08
37291;BME280;23175;-33.706;151.094;2024-01-07T03:01:27;99892.44;;;20.82;47.94
37291;BME280;23175;-33.706;151.094;2024-01-07T03:03:57;99888.57;;;21.77;47.48
37291;BME280;23175;-33.706;151.094;2024-01-07T03:06:33;99892.11;;;21.15;47.99
37291;BME280;23175;-33.706;151.094;2024-01-07T03:09:03;99886.92;;;22.43;46.69
37291;BME280;23175;-33.706;151.094;2024-01-07T03:11:33;99885.36;;;20.70;50.73
37291;BME280;23175;-33.706;151.094;2024-01-07T03:14:03;99876.97;;;21.42;49.98
37291;BME280;23175;-33.706;151.094;2024-01-07T03:16:33;99875.13;;;20.48;51.69
37291;BME280;23175;-33.706;151.094;2024-01-07T03:19:03;99868.72;;;22.22;47.86
37291;BME280;23175;-33.706;151.094;2024-01-07T03:21:33;99869.35;;;22.51;46.47
37291;BME280;23175;-33.706;151.094;2024-01-07T03:24:03;99858.46;;;20.63;48.45
37291;BME280;23175;-33.706;151.094;2024-01-07T03:26:34;99853.73;;;20.64;49.32
37291;BME280;23175;-33.706;151.094;2024-01-07T03:29:09;99853.89;;;22.70;47.29
37291;BME280;23175;-33.706;151.094;2024-01-07T03:31:44;99848.81;;;22.76;45.14
37291;BME280;23175;-33.706;151.094;2024-01-07T03:34:14;99836.35;;;21.95;48.27
37291;BME280;23175;-33.706;151.094;2024-01-07T03:36:44;99842.70;;;22.66;46.15
37291;BME280;23175;-33.706;151.094;2024-01-07T03:39:14;99839.30;;;22.81;46.45
37291;BME280;23175;-33.706;151.094;2024-01-07T03:41:44;99824.80;;;21.90;47.28
37291;BME280;23175;-33.706;151.094;2024-01-07T03:44:14;99830.73;;;22.59;46.24
37291;BME280;23175;-33.706;151.094;2024-01-07T03:46:44;99820.77;;;22.25;47.93
37291;BME280;23175;-33.706;151.094;2024-01-07T03:49:14;99819.01;;;22.15;47.65
37291;BME280;23175;-33.706;151.094;2024-01-07T03:51:44;99820.75;;;22.67;46.06
37291;BME280;23175;-33.706;151.094;2024-01-07T03:54:14;99814.26;;;21.71;48.23
37291;BME280;23175;-33.706;151.094;2024-01-07T03:56:44;99814.25;;;22.53;46.75
37291;BME280;23175;-33.706;151.094;2024-01-07T03:59:14;99807.45;;;22.86;46.04
37291;BME280;23175;-33.706;151.094;2024-01-07T04:01:49;99809.17;;;22.40;46.90
37291;BME280;23175;-33.706;151.094;2024-01-07T04:04:19;99815.04;;;21.06;47.71
37291;BME280;23175;-33.706;151.094;2024-01-07T04:06:49;99812.97;;;21.73;47.40
37291;BME280;23175;-33.706;151.094;2024-01-07T04:09:18;99815.61;;;22.00;46.95
37291;BME280;23175;-33.706;151.094;2024-01-07T04:11:48;99809.33;;;22.12;46.43
37291;BME280;23175;-33.706;151.094;2024-01-07T04:14:19;99813.18;;;21.54;46.94
37291;BME280;23175;-33.706;151.094;2024-01-07T04:16:48;99807.71;;;21.56;48.15
37291;BME280;23175;-33.706;151.094;2024-01-07T04:19:19;99810.48;;;21.37;47.83
37291;BME280;23175;-33.706;151.094;2024-01-07T04:21:49;99800.06;;;21.81;46.25
37291;BME280;23175;-33.706;151.094;2024-01-07T04:24:19;99791.57;;;22.25;46.68
37291;BME280;23175;-33.706;151.094;2024-01-07T04:26:49;99782.68;;;24.11;43.64
37291;BME280;23175;-33.706;151.094;2024-01-07T04:29:19;99784.25;;;21.75;47.31
37291;BME280;23175;-33.706;151.094;2024-01-07T04:31:48;99776.77;;;22.73;44.43
37291;BME280;23175;-33.706;151.094;2024-01-07T04:34:19;99764.49;;;20.97;48.58
37291;BME280;23175;-33.706;151.094;2024-01-07T04:36:49;99760.51;;;21.71;47.03
37291;BME280;23175;-33.706;151.094;2024-01-07T04:39:19;99767.47;;;22.22;46.10
37291;BME280;23175;-33.706;151.094;2024-01-07T04:41:49;99757.67;;;20.40;49.26
37291;BME280;23175;-33.706;151.094;2024-01-07T04:44:19;99748.75;;;21.09;47.67
37291;BME280;23175;-33.706;151.094;2024-01-07T04:46:49;99745.85;;;21.69;47.50
37291;BME280;23175;-33.706;151.094;2024-01-07T04:49:19;99745.66;;;23.43;44.10
37291;BME280;23175;-33.706;151.094;2024-01-07T04:51:49;99735.08;;;23.89;42.83
37291;BME280;23175;-33.706;151.094;2024-01-07T04:54:20;99732.34;;;23.32;44.63
37291;BME280;23175;-33.706;151.094;2024-01-07T04:56:50;99734.63;;;22.33;45.19
37291;BME280;23175;-33.706;151.094;2024-01-07T04:59:20;99725.01;;;24.01;42.90
37291;BME280;23175;-33.706;151.094;2024-01-07T05:01:50;99715.37;;;23.72;42.95
37291;BME280;23175;-33.706;151.094;2024-01-07T05:04:20;99720.16;;;24.04;41.42
37291;BME280;23175;-33.706;151.094;2024-01-07T05:06:50;99719.55;;;22.72;43.10
37291;BME280;23175;-33.706;151.094;2024-01-07T05:09:20;99708.70;;;23.08;41.92
37291;BME280;23175;-33.706;151.094;2024-01-07T05:11:51;99706.80;;;23.45;43.69
37291;BME280;23175;-33.706;151.094;2024-01-07T05:14:21;99707.20;;;22.32;45.41
37291;BME280;23175;-33.706;151.094;2024-01-07T05:16:52;99696.44;;;23.76;42.58
37291;BME280;23175;-33.706;151.094;2024-01-07T05:19:23;99697.45;;;21.40;45.51
37291;BME280;23175;-33.706;151.094;2024-01-07T05:21:54;99697.23;;;21.09;46.35
37291;BME280;23175;-33.706;151.094;2024-01-07T05:24:24;99693.52;;;21.77;45.52
37291;BME280;23175;-33.706;151.094;2024-01-07T05:26:54;99691.08;;;21.43;45.72
37291;BME280;23175;-33.706;151.094;2024-01-07T05:29:25;99682.58;;;22.40;45.46
37291;BME280;23175;-33.706;151.094;2024-01-07T05:31:55;99680.41;;;23.64;43.64
37291;BME280;23175;-33.706;151.094;2024-01-07T05:34:25;99672.98;;;24.82;41.13
37291;BME280;23175;-33.706;151.094;2024-01-07T05:36:55;99666.06;;;20.93;47.18
37291;BME280;23175;-33.706;151.094;2024-01-07T05:39:25;99669.82;;;21.79;46.06
37291;BME280;23175;-33.706;151.094;2024-01-07T05:41:55;99660.02;;;22.49;45.11
37291;BME280;23175;-33.706;151.094;2024-01-07T05:44:25;99667.63;;;21.43;45.46
37291;BME280;23175;-33.706;151.094;2024-01-07T05:46:55;99653.68;;;24.01;42.34
37291;BME280;23175;-33.706;151.094;2024-01-07T05:49:25;99664.70;;;24.16;42.69
37291;BME280;23175;-33.706;151.094;2024-01-07T05:51:55;99663.39;;;22.42;44.18
37291;BME280;23175;-33.706;151.094;2024-01-07T05:54:26;99654.72;;;22.74;45.02
37291;BME280;23175;-33.706;151.094;2024-01-07T05:56:55;99654.83;;;22.70;43.94
37291;BME280;23175;-33.706;151.094;2024-01-07T05:59:27;99654.18;;;22.39;44.50
37291;BME280;23175;-33.706;151.094;2024-01-07T06:02:00;99653.95;;;22.63;44.48
37291;BME280;23175;-33.706;151.094;2024-01-07T06:04:31;99658.29;;;23.22;43.91
37291;BME280;23175;-33.706;151.094;2024-01-07T06:07:02;99655.02;;;21.59;45.82
37291;BME280;23175;-33.706;151.094;2024-01-07T06:09:32;99653.93;;;23.30;43.95
37291;BME280;23175;-33.706;151.094;2024-01-07T06:12:02;99658.66;;;21.72;46.52
37291;BME280;23175;-33.706;151.094;2024-01-07T06:14:32;99647.64;;;22.67;44.47
37291;BME280;23175;-33.706;151.094;2024-01-07T06:17:02;99644.23;;;22.85;44.76
37291;BME280;23175;-33.706;151.094;2024-01-07T06:19:32;99638.40;;;21.32;46.41
37291;BME280;23175;-33.706;151.094;2024-01-07T06:22:02;99631.05;;;23.58;43.30
37291;BME280;23175;-33.706;151.094;2024-01-07T06:24:32;99624.94;;;24.06;42.19
37291;BME280;23175;-33.706;151.094;2024-01-07T06:27:02;99628.04;;;22.71;44.40
37291;BME280;23175;-33.706;151.094;2024-01-07T06:29:32;99626.51;;;23.63;42.55
37291;BME280;23175;-33.706;151.094;2024-01-07T06:32:03;99639.13;;;20.15;47.85
37291;BME280;23175;-33.706;151.094;2024-01-07T06:34:33;99637.90;;;21.79;45.51
37291;BME280;23175;-33.706;151.094;2024-01-07T06:37:03;99635.69;;;23.51;43.33
37291;BME280;23175;-33.706;151.094;2024-01-07T06:39:33;99641.30;;;22.48;44.11
37291;BME280;23175;-33.706;151.094;2024-01-07T06:42:03;99641.09;;;23.99;42.27
37291;BME280;23175;-33.706;151.094;2024-01-07T06:44:33;99643.19;;;21.26;45.50
37291;BME280;23175;-33.706;151.094;2024-01-07T06:47:03;99644.34;;;21.11;45.49
37291;BME280;23175;-33.706;151.094;2024-01-07T06:49:33;99645.61;;;21.59;45.19
37291;BME280;23175;-33.706;151.094;2024-01-07T06:52:03;99653.77;;;20.57;45.91
37291;BME280;23175;-33.706;151.094;2024-01-07T06:54:34;99649.52;;;21.28;45.67
37291;BME280;23175;-33.706;151.094;2024-01-07T06:57:04;99649.90;;;21.48;45.08
37291;BME280;23175;-33.706;151.094;2024-01-07T06:59:34;99653.26;;;20.85;45.27
37291;BME280;23175;-33.706;151.094;2024-01-07T07:02:05;99656.80;;;21.59;44.15
37291;BME280;23175;-33.706;151.094;2024-01-07T07:04:35;99658.45;;;20.21;46.88
37291;BME280;23175;-33.706;151.094;2024-01-07T07:07:05;99663.39;;;20.89;46.35
37291;BME280;23175;-33.706;151.094;2024-01-07T07:09:36;99669.30;;;21.79;45.36
37291;BME280;23175;-33.706;151.094;2024-01-07T07:12:06;99673.51;;;20.75;46.66
37291;BME280;23175;-33.706;151.094;2024-01-07T07:14:36;99679.62;;;21.60;45.53
37291;BME280;23175;-33.706;151.094;2024-01-07T07:17:06;99678.05;;;21.39;45.66
37291;BME280;23175;-33.706;151.094;2024-01-07T07:19:37;99677.15;;;21.98;44.43
37291;BME280;23175;-33.706;151.094;2024-01-07T07:22:07;99672.00;;;23.03;42.13
37291;BME280;23175;-33.706;151.094;2024-01-07T07:24:43;99678.16;;;20.79;46.00
37291;BME280;23175;-33.706;151.094;2024-01-07T07:27:12;99676.97;;;22.39;43.30
37291;BME280;23175;-33.706;151.094;2024-01-07T07:29:43;99675.94;;;21.85;43.96
37291;BME280;23175;-33.706;151.094;2024-01-07T07:32:12;99668.96;;;22.01;44.02
37291;BME280;23175;-33.706;151.094;2024-01-07T07:34:42;99664.09;;;20.40;47.29
37291;BME280;23175;-33.706;151.094;2024-01-07T07:37:12;99662.67;;;22.91;43.92
37291;BME280;23175;-33.706;151.094;2024-01-07T07:39:42;99654.61;;;21.18;45.48
37291;BME280;23175;-33.706;151.094;2024-01-07T07:42:13;99652.01;;;21.65;45.06
37291;BME280;23175;-33.706;151.094;2024-01-07T07:44:42;99640.75;;;21.44;45.99
37291;BME280;23175;-33.706;151.094;2024-01-07T07:47:12;99635.93;;;22.06;44.54
37291;BME280;23175;-33.706;151.094;2024-01-07T07:49:42;99632.43;;;20.56;47.15
37291;BME280;23175;-33.706;151.094;2024-01-07T07:52:17;99631.74;;;20.01;48.58
37291;BME280;23175;-33.706;151.094;2024-01-07T07:54:48;99630.37;;;20.95;48.21
37291;BME280;23175;-33.706;151.094;2024-01-07T07:57:18;99643.27;;;20.77;47.48
37291;BME280;23175;-33.706;151.094;2024-01-07T07:59:48;99651.48;;;21.94;46.03
37291;BME280;23175;-33.706;151.094;2024-01-07T08:02:18;99667.88;;;20.17;49.92
37291;BME280;23175;-33.706;151.094;2024-01-07T08:04:49;99661.07;;;21.07;48.48
37291;BME280;23175;-33.706;151.094;2024-01-07T08:07:19;99675.78;;;20.43;49.44
37291;BME280;23175;-33.706;151.094;2024-01-07T08:09:49;99677.61;;;20.91;48.40
37291;BME280;23175;-33.706;151.094;2024-01-07T08:12:19;99670.76;;;19.36;51.67
37291;BME280;23175;-33.706;151.094;2024-01-07T08:14:48;99676.23;;;20.00;51.00
37291;BME280;23175;-33.706;151.094;2024-01-07T08:17:18;99676.72;;;19.09;52.36
37291;BME280;23175;-33.706;151.094;2024-01-07T08:19:48;99675.29;;;20.28;50.56
37291;BME280;23175;-33.706;151.094;2024-01-07T08:22:18;99679.11;;;20.59;51.25
37291;BME280;23175;-33.706;151.094;2024-01-07T08:24:48;99676.43;;;20.11;51.87
37291;BME280;23175;-33.706;151.094;2024-01-07T08:27:18;99676.37;;;19.68;52.27
37291;BME280;23175;-33.706;151.094;2024-01-07T08:29:54;99673.07;;;20.49;51.34
37291;BME280;23175;-33.706;151.094;2024-01-07T08:32:25;99670.61;;;21.46;49.11
37291;BME280;23175;-33.706;151.094;2024-01-07T08:34:55;99664.63;;;21.41;48.86
37291;BME280;23175;-33.706;151.094;2024-01-07T08:37:25;99658.32;;;21.38;48.14
37291;BME280;23175;-33.706;151.094;2024-01-07T08:39:54;99658.38;;;19.91;50.54
37291;BME280;23175;-33.706;151.094;2024-01-07T08:42:26;99658.64;;;19.57;50.35
37291;BME280;23175;-33.706;151.094;2024-01-07T08:44:55;99660.12;;;21.36;48.92
37291;BME280;23175;-33.706;151.094;2024-01-07T08:47:26;99672.36;;;18.43;52.94
37291;BME280;23175;-33.706;151.094;2024-01-07T08:49:56;99672.04;;;20.64;49.25
37291;BME280;23175;-33.706;151.094;2024-01-07T08:52:26;99675.47;;;21.27;48.64
37291;BME280;23175;-33.706;151.094;2024-01-07T08:54:56;99678.59;;;21.95;47.07
37291;BME280;23175;-33.706;151.094;2024-01-07T08:57:26;99680.64;;;22.44;46.16
37291;BME280;23175;-33.706;151.094;2024-01-07T08:59:56;99694.00;;;21.95;47.10
37291;BME280;23175;-33.706;151.094;2024-01-07T09:02:26;99698.60;;;18.90;53.23
37291;BME280;23175;-33.706;151.094;2024-01-07T09:04:56;99688.83;;;19.43;51.44
37291;BME280;23175;-33.706;151.094;2024-01-07T09:07:27;99689.90;;;20.14;50.66
37291;BME280;23175;-33.706;151.094;2024-01-07T09:09:57;99696.46;;;19.34;51.02
37291;BME280;23175;-33.706;151.094;2024-01-07T09:12:28;99693.53;;;19.87;51.17
37291;BME280;23175;-33.706;151.094;2024-01-07T09:14:58;99693.67;;;21.04;48.70
37291;BME280;23175;-33.706;151.094;2024-01-07T09:17:27;99692.03;;;17.47;55.81
37291;BME280;23175;-33.706;151.094;2024-01-07T09:19:58;99688.58;;;20.74;50.86
37291;BME280;23175;-33.706;151.094;2024-01-07T09:22:28;99688.41;;;18.85;52.91
37291;BME280;23175;-33.706;151.094;2024-01-07T09:24:58;99687.51;;;19.70;52.27
37291;BME280;23175;-33.706;151.094;2024-01-07T09:27:28;99692.06;;;20.73;49.00
37291;BME280;23175;-33.706;151.094;2024-01-07T09:29:58;99697.50;;;18.32;54.17
37291;BME280;23175;-33.706;151.094;2024-01-07T09:32:28;99699.27;;;19.75;51.20
37291;BME280;23175;-33.706;151.094;2024-01-07T09:34:58;99705.20;;;19.46;52.28
37291;BME280;23175;-33.706;151.094;2024-01-07T09:37:28;99711.20;;;19.10;52.90
37291;BME280;23175;-33.706;151.094;2024-01-07T09:39:58;99712.99;;;21.56;48.95
37291;BME280;23175;-33.706;151.094;2024-01-07T09:42:28;99716.56;;;18.85;52.45
37291;BME280;23175;-33.706;151.094;2024-01-07T09:45:00;99718.28;;;18.89;53.07
37291;BME280;23175;-33.706;151.094;2024-01-07T09:47:32;99722.03;;;18.18;55.12
37291;BME280;23175;-33.706;151.094;2024-01-07T09:50:02;99723.22;;;19.02;54.50
37291;BME280;23175;-33.706;151.094;2024-01-07T09:52:34;99723.91;;;19.41;53.08
37291;BME280;23175;-33.706;151.094;2024-01-07T09:55:05;99722.86;;;18.56;55.85
37291;BME280;23175;-33.706;151.094;2024-01-07T09:57:40;99727.49;;;19.24;54.65
37291;BME280;23175;-33.706;151.094;2024-01-07T10:00:11;99734.89;;;19.73;54.04
37291;BME280;23175;-33.706;151.094;2024-01-07T10:02:42;99729.35;;;19.57;53.28
37291;BME280;23175;-33.706;151.094;2024-01-07T10:05:12;99730.13;;;21.14;50.48
37291;BME280;23175;-33.706;151.094;2024-01-07T10:07:42;99728.20;;;19.58;52.37
37291;BME280;23175;-33.706;151.094;2024-01-07T10:10:15;99724.89;;;19.85;52.03
37291;BME280;23175;-33.706;151.094;2024-01-07T10:12:46;99728.12;;;20.19;51.45
37291;BME280;23175;-33.706;151.094;2024-01-07T10:15:22;99728.90;;;18.89;53.54
37291;BME280;23175;-33.706;151.094;2024-01-07T10:17:56;99731.69;;;21.64;48.32
37291;BME280;23175;-33.706;151.094;2024-01-07T10:20:32;99730.75;;;21.68;49.71
37291;BME280;23175;-33.706;151.094;2024-01-07T10:23:03;99727.40;;;20.29;51.48
37291;BME280;23175;-33.706;151.094;2024-01-07T10:25:34;99728.21;;;18.55;55.21
37291;BME280;23175;-33.706;151.094;2024-01-07T10:28:05;99721.78;;;18.79;55.22
37291;BME280;23175;-33.706;151.094;2024-01-07T10:30:35;99708.62;;;20.67;50.61
37291;BME280;23175;-33.706;151.094;2024-01-07T10:33:08;99701.97;;;18.29;55.34
37291;BME280;23175;-33.706;151.094;2024-01-07T10:35:42;99706.88;;;18.34;57.04
37291;BME280;23175;-33.706;151.094;2024-01-07T10:38:16;99707.96;;;17.97;56.89
37291;BME280;23175;-33.706;151.094;2024-01-07T10:40:47;99704.97;;;18.28;57.19
37291;BME280;23175;-33.706;151.094;2024-01-07T10:43:18;99700.29;;;17.94;58.95
37291;BME280;23175;-33.706;151.094;2024-01-07T10:45:49;99695.27;;;20.14;55.15
37291;BME280;23175;-33.706;151.094;2024-01-07T10:48:20;99709.45;;;16.97;59.82
37291;BME280;23175;-33.706;151.094;2024-01-07T10:50:52;99711.50;;;18.70;57.30
37291;BME280;23175;-33.706;151.094;2024-01-07T10:53:26;99715.74;;;18.06;59.22
37291;BME280;23175;-33.706;151.094;2024-01-07T10:56:02;99717.19;;;18.52;57.50
37291;BME280;23175;-33.706;151.094;2024-01-07T10:58:34;99721.93;;;17.29;61.12
37291;BME280;23175;-33.706;151.094;2024-01-07T11:01:05;99717.23;;;17.69;59.71
37291;BME280;23175;-33.706;151.094;2024-01-07T11:03:43;99708.91;;;19.99;55.28
37291;BME280;23175;-33.706;151.094;2024-01-07T11:06:19;99711.85;;;17.16;58.87
37291;BME280;23175;-33.706;151.094;2024-01-07T11:08:58;99704.30;;;18.41;57.55
37291;BME280;23175;-33.706;151.094;2024-01-07T11:11:38;99705.32;;;18.02;56.56
37291;BME280;23175;-33.706;151.094;2024-01-07T11:14:37;99709.02;;;18.33;56.94
37291;BME280;23175;-33.706;151.094;2024-01-07T11:17:07;99706.17;;;19.92;54.70
37291;BME280;23175;-33.706;151.094;2024-01-07T11:19:38;99706.24;;;19.79;53.54
37291;BME280;23175;-33.706;151.094;2024-01-07T11:22:25;99710.19;;;20.41;53.41
37291;BME280;23175;-33.706;151.094;2024-01-07T11:24:56;99711.04;;;20.94;51.06
37291;BME280;23175;-33.706;151.094;2024-01-07T11:27:29;99717.27;;;18.18;56.74
37291;BME280;23175;-33.706;151.094;2024-01-07T11:30:01;99712.81;;;20.08;53.97
37291;BME280;23175;-33.706;151.094;2024-01-07T11:32:32;99709.62;;;20.83;52.02
37291;BME280;23175;-33.706;151.094;2024-01-07T11:35:03;99703.07;;;19.29;53.06
37291;BME280;23175;-33.706;151.094;2024-01-07T11:37:33;99699.08;;;22.12;48.36
37291;BME280;23175;-33.706;151.094;2024-01-07T11:40:05;99696.17;;;18.78;54.20
37291;BME280;23175;-33.706;151.094;2024-01-07T11:42:35;99696.76;;;19.07;54.23
37291;BME280;23175;-33.706;151.094;2024-01-07T11:45:06;99704.42;;;17.15;58.24
37291;BME280;23175;-33.706;151.094;2024-01-07T11:47:36;99693.43;;;19.09;54.44
37291;BME280;23175;-33.706;151.094;2024-01-07T11:50:07;99689.37;;;17.80;57.36
37291;BME280;23175;-33.706;151.094;2024-01-07T11:52:38;99682.67;;;17.85;57.15
37291;BME280;23175;-33.706;151.094;2024-01-07T11:55:09;99682.93;;;18.14;57.41
37291;BME280;23175;-33.706;151.094;2024-01-07T11:57:39;99683.80;;;18.99;55.66
37291;BME280;23175;-33.706;151.094;2024-01-07T12:00:10;99691.03;;;16.88;59.51
37291;BME280;23175;-33.706;151.094;2024-01-07T12:02:40;99686.69;;;18.59;56.86
37291;BME280;23175;-33.706;151.094;2024-01-07T12:05:11;99687.07;;;19.24;54.78
37291;BME280;23175;-33.706;151.094;2024-01-07T12:07:40;99686.37;;;20.08;52.40
37291;BME280;23175;-33.706;151.094;2024-01-07T12:10:10;99684.83;;;21.35;50.14
37291;BME280;23175;-33.706;151.094;2024-01-07T12:12:41;99686.98;;;23.07;46.86
37291;BME280;23175;-33.706;151.094;2024-01-07T12:15:12;99689.52;;;21.38;48.75
37291;BME280;23175;-33.706;151.094;2024-01-07T12:17:42;99686.10;;;16.89;57.09
37291;BME280;23175;-33.706;151.094;2024-01-07T12:20:14;99676.96;;;18.80;55.68
37291;BME280;23175;-33.706;151.094;2024-01-07T12:22:44;99672.87;;;20.40;51.75
37291;BME280;23175;-33.706;151.094;2024-01-07T12:25:20;99674.24;;;19.23;53.61
37291;BME280;23175;-33.706;151.094;2024-01-07T12:27:51;99678.75;;;19.64;52.42
37291;BME280;23175;-33.706;151.094;2024-01-07T12:30:23;99671.73;;;18.64;55.08
37291;BME280;23175;-33.706;151.094;2024-01-07T12:32:54;99663.40;;;18.41;55.23
37291;BME280;23175;-33.706;151.094;2024-01-07T12:35:27;99666.56;;;20.84;51.07
37291;BME280;23175;-33.706;151.094;2024-01-07T12:37:59;99668.88;;;20.77;49.99
37291;BME280;23175;-33.706;151.094;2024-01-07T12:40:30;99670.48;;;21.45;48.68
37291;BME280;23175;-33.706;151.094;2024-01-07T12:43:00;99680.34;;;16.95;57.41
37291;BME280;23175;-33.706;151.094;2024-01-07T12:45:30;99674.28;;;18.50;54.40